Time;durP1;ratioP1;P1;durP2;ratioP2;P2;SDS_P1;SDS_P2;PMS_P1;PMS_P2;Temp;Humidity;BMP_temperature;BMP_pressure;BME280_temperature;BME280_humidity;BME280_pressure;Samples;Min_cycle;Max_cycle;Signal;HPM_P1;HPM_P2
2021/04/14 00:00:07;;;;;;;14.88;10.35;;;;;;;-0.33;81.95;96749.75;5037891;28;20053;-45
2021/04/14 00:02:35;;;;;;;14.60;10.38;;;;;;;-0.33;81.92;96744.44;5048075;28;20055;-46
2021/04/14 00:05:07;;;;;;;13.43;9.90;;;;;;;-0.26;81.19;96736.28;5036919;28;20107;-48
2021/04/14 00:07:33;;;;;;;14.27;9.98;;;;;;;-0.23;81.92;96743.78;5031077;28;20056;-44
2021/04/14 00:09:59;;;;;;;14.13;9.55;;;;;;;-0.45;81.51;96733.09;5031086;28;20053;-43
2021/04/14 00:12:26;;;;;;;14.40;9.85;;;;;;;-0.38;81.73;96736.41;5030476;28;20059;-46
2021/04/14 00:14:52;;;;;;;12.35;9.07;;;;;;;-0.37;81.56;96732.69;5030887;28;20471;-43
2021/04/14 00:17:19;;;;;;;15.02;9.73;;;;;;;-0.47;81.56;96737.84;5046018;28;20429;-44
2021/04/14 00:19:45;;;;;;;14.00;9.95;;;;;;;-0.57;81.82;96730.50;5030954;28;20049;-45
2021/04/14 00:22:12;;;;;;;13.85;9.35;;;;;;;-0.65;82.01;96732.75;5030551;28;20053;-46
2021/04/14 00:24:39;;;;;;;13.50;9.93;;;;;;;-0.50;81.79;96728.50;5032739;28;20041;-46
2021/04/14 00:27:05;;;;;;;16.30;9.80;;;;;;;-0.49;81.52;96722.16;5034628;28;20391;-45
2021/04/14 00:29:32;;;;;;;14.13;9.60;;;;;;;-0.43;81.42;96723.00;5034525;28;20067;-44
2021/04/14 00:31:58;;;;;;;13.93;9.68;;;;;;;-0.52;82.02;96727.13;5034571;28;20050;-44
2021/04/14 00:34:25;;;;;;;15.52;10.00;;;;;;;-0.74;82.47;96725.19;5033083;28;20041;-46
2021/04/14 00:36:52;;;;;;;13.18;9.57;;;;;;;-0.54;83.04;96729.22;5034472;28;20058;-42
2021/04/14 00:39:22;;;;;;;13.55;9.50;;;;;;;-0.69;81.87;96729.78;5034190;28;20050;-44
2021/04/14 00:41:51;;;;;;;13.13;8.98;;;;;;;-0.58;82.49;96731.56;5033879;28;20054;-44
2021/04/14 00:44:19;;;;;;;13.88;9.32;;;;;;;-0.67;81.59;96727.69;5034130;28;20041;-44
2021/04/14 00:46:46;;;;;;;10.80;7.53;;;;;;;-0.50;79.89;96730.34;5034381;28;20049;-45
2021/04/14 00:49:13;;;;;;;11.80;8.80;;;;;;;-0.64;80.54;96729.06;5034245;28;20094;-43
2021/04/14 00:51:41;;;;;;;10.02;7.63;;;;;;;-0.65;80.95;96728.28;5033742;28;20049;-44
2021/04/14 00:54:10;;;;;;;13.48;8.73;;;;;;;-0.76;81.11;96732.59;5034190;28;20048;-43
2021/04/14 00:56:37;;;;;;;11.45;7.15;;;;;;;-0.73;80.45;96718.81;5034412;28;20140;-42
2021/04/14 00:59:04;;;;;;;10.25;7.63;;;;;;;-0.82;81.18;96719.47;5035081;28;20056;-43
2021/04/14 01:01:31;;;;;;;11.35;7.63;;;;;;;-0.87;81.29;96716.75;5034283;28;20522;-42
2021/04/14 01:03:58;;;;;;;13.63;8.23;;;;;;;-0.94;81.72;96719.53;5034137;28;20049;-44
2021/04/14 01:06:27;;;;;;;12.15;7.88;;;;;;;-0.82;80.96;96720.25;5033786;28;20097;-49
2021/04/14 01:08:54;;;;;;;13.18;8.35;;;;;;;-0.88;81.10;96710.59;5033815;28;20057;-48
2021/04/14 01:11:25;;;;;;;13.85;7.82;;;;;;;-0.86;80.86;96719.13;5045633;28;20049;-50
2021/04/14 01:13:52;;;;;;;13.00;7.82;;;;;;;-0.91;80.80;96711.09;5037654;28;20045;-46
2021/04/14 01:16:19;;;;;;;10.68;7.55;;;;;;;-0.90;80.45;96711.91;5033818;28;20068;-47
2021/04/14 01:18:45;;;;;;;12.50;7.53;;;;;;;-0.90;80.07;96712.69;5033704;28;20053;-47
2021/04/14 01:21:19;;;;;;;11.00;6.68;;;;;;;-0.91;79.99;96708.44;5033280;28;20068;-44
2021/04/14 01:23:45;;;;;;;;;;;;;;;-0.93;80.38;96697.25;5033730;28;20053;-44
2021/04/14 01:26:12;;;;;;;11.50;6.88;;;;;;;-0.86;81.35;96708.50;5033771;28;20370;-45
2021/04/14 01:28:41;;;;;;;10.15;6.45;;;;;;;-0.81;79.76;96705.16;5033611;28;20071;-46
2021/04/14 01:31:11;;;;;;;12.90;6.93;;;;;;;-0.88;80.04;96702.63;5042415;28;20061;-46
2021/04/14 01:33:38;;;;;;;8.95;6.40;;;;;;;-0.65;79.00;96707.00;5052844;28;20061;-44
2021/04/14 01:36:07;;;;;;;9.50;6.72;;;;;;;-0.76;79.09;96706.03;5051327;28;20411;-47
2021/04/14 01:38:35;;;;;;;10.48;6.50;;;;;;;-0.61;78.35;96702.00;5033701;28;20054;-46
2021/04/14 01:41:03;;;;;;;9.73;6.65;;;;;;;-0.66;78.65;96702.72;5033599;28;20057;-47
2021/04/14 01:43:30;;;;;;;10.35;6.88;;;;;;;-0.62;78.63;96700.38;5043924;28;20499;-48
2021/04/14 01:45:57;;;;;;;13.25;6.55;;;;;;;-0.73;79.19;96707.41;5053465;28;20063;-45
2021/04/14 01:48:23;;;;;;;10.02;6.85;;;;;;;-0.51;78.21;96702.16;5053318;28;20052;-49
2021/04/14 01:50:50;;;;;;;8.70;5.95;;;;;;;-0.59;78.70;96702.56;5044159;28;20115;-47
2021/04/14 01:53:18;;;;;;;8.90;6.45;;;;;;;-0.52;78.61;96697.88;5032406;28;20053;-45
2021/04/14 01:55:48;;;;;;;11.07;6.30;;;;;;;-0.39;77.33;96700.22;5033794;28;20051;-47
2021/04/14 01:58:15;;;;;;;9.80;6.25;;;;;;;-0.52;78.35;96697.88;5033343;28;20114;-46
2021/04/14 02:00:51;;;;;;;11.77;5.95;;;;;;;-0.47;78.10;96695.31;5045060;28;20474;-45
2021/04/14 02:03:18;;;;;;;11.52;7.07;;;;;;;-0.53;78.35;96697.06;5051271;28;20051;-48
2021/04/14 02:05:44;;;;;;;9.15;6.60;;;;;;;-0.69;79.33;96697.09;5052502;28;20058;-47
2021/04/14 02:08:12;;;;;;;12.02;7.93;;;;;;;-0.74;79.42;96695.97;5052725;28;20061;-47
2021/04/14 02:10:39;;;;;;;9.52;6.35;;;;;;;-0.74;79.42;96695.97;5039700;28;20049;-48
2021/04/14 02:13:12;;;;;;;10.60;5.90;;;;;;;-0.93;79.69;96696.44;5031240;28;20060;-45
2021/04/14 02:15:38;;;;;;;8.63;5.93;;;;;;;-0.92;80.09;96698.03;5033068;28;20569;-45
2021/04/14 02:18:05;;;;;;;10.77;6.93;;;;;;;-0.84;79.87;96690.50;5032905;28;20049;-45
2021/04/14 02:20:33;;;;;;;10.70;6.53;;;;;;;-0.73;80.11;96696.75;5031814;28;20061;-44
2021/04/14 02:23:20;;;;;;;12.10;7.15;;;;;;;-0.63;79.61;96694.25;5032496;28;20498;-46
2021/04/14 02:25:47;;;;;;;10.13;6.40;;;;;;;-0.64;79.65;96699.84;5032965;28;20111;-45
2021/04/14 02:28:16;;;;;;;8.25;5.88;;;;;;;-0.65;79.31;96700.88;5032323;28;20041;-46
2021/04/14 02:30:46;;;;;;;11.33;6.93;;;;;;;-0.59;79.78;96692.72;5038780;28;20060;-43
2021/04/14 02:33:13;;;;;;;11.02;6.60;;;;;;;-0.44;79.65;96686.84;5038712;28;20301;-44
2021/04/14 02:35:39;;;;;;;9.70;6.28;;;;;;;-0.31;79.06;96691.81;5030965;28;20148;-45
2021/04/14 02:38:07;;;;;;;9.73;6.63;;;;;;;-0.21;78.73;96687.72;5032326;28;20057;-44
2021/04/14 02:40:34;;;;;;;9.82;6.40;;;;;;;-0.08;78.80;96690.00;5030936;28;20511;-47
2021/04/14 02:43:01;;;;;;;9.68;6.80;;;;;;;-0.18;78.51;96684.56;5037411;28;20049;-47
2021/04/14 02:45:29;;;;;;;9.93;6.82;;;;;;;-0.36;78.90;96690.94;5031715;28;20051;-48
2021/04/14 02:47:57;;;;;;;10.77;6.93;;;;;;;-0.49;79.69;96684.94;5031198;28;20140;-47
2021/04/14 02:50:29;;;;;;;8.65;6.00;;;;;;;-0.61;79.35;96686.06;5031961;28;20052;-45
2021/04/14 02:52:56;;;;;;;9.32;6.75;;;;;;;-0.63;79.54;96685.50;5047169;28;20049;-46
2021/04/14 02:55:25;;;;;;;9.10;6.35;;;;;;;-0.45;79.52;96677.28;5031689;28;20073;-46
2021/04/14 02:57:52;;;;;;;12.02;6.97;;;;;;;-0.41;78.88;96681.03;5034145;28;20045;-44
2021/04/14 03:00:22;;;;;;;10.70;7.38;;;;;;;-0.39;78.93;96673.66;5039614;28;20449;-47
2021/04/14 03:02:49;;;;;;;13.15;7.00;;;;;;;-0.46;78.97;96680.97;5052642;28;20153;-45
2021/04/14 03:05:20;;;;;;;11.13;7.38;;;;;;;-0.56;79.31;96670.97;5051918;28;20049;-45
2021/04/14 03:07:46;;;;;;;12.43;7.00;;;;;;;-0.57;79.42;96684.53;5051711;28;20510;-45
2021/04/14 03:10:14;;;;;;;13.00;7.30;;;;;;;-0.45;79.47;96679.94;5044269;28;20061;-47
2021/04/14 03:12:48;;;;;;;10.50;7.03;;;;;;;-0.35;78.59;96677.41;5031210;28;20099;-50
2021/04/14 03:15:18;;;;;;;12.07;7.93;;;;;;;-0.45;79.28;96676.47;5031640;28;20052;-47
2021/04/14 03:17:44;;;;;;;13.38;7.75;;;;;;;-0.73;79.86;96681.63;5031695;28;20057;-49
2021/04/14 03:20:12;;;;;;;11.13;7.05;;;;;;;-0.78;80.37;96678.91;5060995;22;20056;-43
2021/04/14 03:22:39;;;;;;;13.45;7.90;;;;;;;-0.82;80.63;96671.63;5057357;28;20059;-44
2021/04/14 03:25:06;;;;;;;12.95;8.02;;;;;;;-0.90;80.70;96670.19;5050942;28;20394;-44
2021/04/14 03:27:33;;;;;;;11.43;7.55;;;;;;;-0.92;80.88;96671.47;5051034;28;20052;-45
2021/04/14 03:29:59;;;;;;;11.63;8.05;;;;;;;-0.95;81.05;96676.22;5046363;28;20399;-44
2021/04/14 03:32:26;;;;;;;11.43;8.35;;;;;;;-1.07;81.26;96674.66;5030598;28;20128;-42
2021/04/14 03:34:52;;;;;;;12.02;8.32;;;;;;;-1.04;81.44;96669.72;5031086;28;20042;-44
2021/04/14 03:37:19;;;;;;;11.90;8.15;;;;;;;-1.02;81.50;96667.59;5030829;28;20069;-45
2021/04/14 03:39:46;;;;;;;14.05;8.40;;;;;;;-0.82;81.32;96661.81;5030260;28;20051;-47
2021/04/14 03:42:14;;;;;;;11.15;7.80;;;;;;;-0.71;80.21;96663.59;5029468;28;20053;-44
2021/04/14 03:44:41;;;;;;;12.15;7.63;;;;;;;-0.74;80.77;96664.06;5030948;28;20049;-45
2021/04/14 03:47:07;;;;;;;15.57;8.30;;;;;;;-0.66;81.17;96664.72;5029786;28;20054;-43
2021/04/14 03:49:34;;;;;;;13.50;7.85;;;;;;;-0.63;80.25;96659.72;5013276;28;20144;-45
2021/04/14 03:52:01;;;;;;;13.73;8.85;;;;;;;-0.81;80.53;96659.97;5045226;28;20057;-45
2021/04/14 03:54:33;;;;;;;13.63;9.25;;;;;;;-0.86;81.61;96658.03;5049652;28;20124;-46
2021/04/14 03:56:59;;;;;;;12.13;8.15;;;;;;;-0.94;81.19;96655.78;5050693;28;20122;-43
2021/04/14 03:59:26;;;;;;;14.30;8.38;;;;;;;-1.00;81.23;96670.03;5041440;28;20115;-43
2021/04/14 04:01:54;;;;;;;12.38;8.23;;;;;;;-0.91;81.25;96663.28;5034125;28;20088;-43
2021/04/14 04:04:22;;;;;;;14.73;9.38;;;;;;;-0.99;81.19;96661.81;5049944;28;20556;-44
2021/04/14 04:06:49;;;;;;;13.45;9.05;;;;;;;-1.13;81.50;96657.06;5034764;28;20053;-47
2021/04/14 04:09:16;;;;;;;20.52;9.70;;;;;;;-1.09;81.92;96660.84;5035168;28;20060;-47
2021/04/14 04:11:42;;;;;;;13.57;8.40;;;;;;;-0.84;81.11;96661.25;5033823;28;20517;-43
2021/04/14 04:14:09;;;;;;;11.25;7.72;;;;;;;-1.05;81.38;96672.59;5049818;28;20473;-46
2021/04/14 04:16:35;;;;;;;11.77;8.32;;;;;;;-0.91;81.93;96676.56;5034575;28;20136;-45
2021/04/14 04:19:03;;;;;;;13.20;8.60;;;;;;;-1.01;81.62;96671.06;5033640;28;20057;-44
2021/04/14 04:21:33;;;;;;;15.40;9.07;;;;;;;-1.06;82.28;96674.44;5043184;28;20147;-44
2021/04/14 04:23:59;;;;;;;16.70;8.75;;;;;;;-1.06;81.69;96677.09;5054264;28;20056;-46
2021/04/14 04:26:26;;;;;;;15.32;8.40;;;;;;;-1.19;82.29;96675.56;5052938;28;20045;-45
2021/04/14 04:28:52;;;;;;;16.38;9.95;;;;;;;-1.23;82.24;96666.47;5064556;28;20556;-47
2021/04/14 04:31:19;;;;;;;13.80;8.70;;;;;;;-1.19;82.68;96675.56;5058296;28;20050;-47
2021/04/14 04:33:46;;;;;;;15.05;8.63;;;;;;;-1.19;82.41;96670.25;5033463;28;20286;-46
2021/04/14 04:36:13;;;;;;;17.73;9.10;;;;;;;-1.15;82.43;96673.22;5060248;28;20094;-45
2021/04/14 04:38:39;;;;;;;12.32;8.98;;;;;;;-1.16;82.64;96671.63;5069537;28;20126;-44
2021/04/14 04:41:06;;;;;;;14.15;9.75;;;;;;;-1.21;82.76;96667.00;5054016;28;20075;-45
2021/04/14 04:43:33;;;;;;;12.45;9.02;;;;;;;-1.19;82.47;96667.59;5050008;28;20048;-46
2021/04/14 04:45:59;;;;;;;13.32;8.90;;;;;;;-1.14;82.24;96674.81;5038278;28;20055;-47
2021/04/14 04:48:29;;;;;;;14.32;8.85;;;;;;;-1.18;82.26;96669.19;5034692;28;20049;-44
2021/04/14 04:50:56;;;;;;;14.68;9.27;;;;;;;-1.16;82.55;96668.97;5050174;28;20057;-46
2021/04/14 04:53:24;;;;;;;12.98;8.68;;;;;;;-0.96;81.72;96666.66;5058566;28;20057;-44
2021/04/14 04:55:51;;;;;;;13.13;9.18;;;;;;;-0.86;80.96;96667.84;5052686;28;20510;-44
2021/04/14 04:58:25;;;;;;;11.77;8.07;;;;;;;-0.88;81.83;96670.75;5039572;28;20048;-44
2021/04/14 05:00:52;;;;;;;19.05;10.75;;;;;;;-0.88;81.46;96665.44;5049166;28;20107;-47
2021/04/14 05:03:25;;;;;;;14.70;9.15;;;;;;;-0.97;81.67;96666.91;5034125;28;20064;-45
2021/04/14 05:05:56;;;;;;;15.65;8.98;;;;;;;-1.06;81.78;96666.47;5058285;28;20163;-48
2021/04/14 05:08:33;;;;;;;13.10;9.15;;;;;;;-1.14;82.27;96674.81;5047428;28;20110;-47
2021/04/14 05:11:00;;;;;;;14.65;8.65;;;;;;;-1.12;81.52;96674.59;5051681;28;20056;-49
2021/04/14 05:13:28;;;;;;;14.35;9.07;;;;;;;-1.15;82.07;96669.75;5044585;28;20049;-47
2021/04/14 05:15:54;;;;;;;11.95;8.80;;;;;;;-1.05;81.90;96673.38;5068923;28;20045;-48
2021/04/14 05:18:21;;;;;;;13.95;9.88;;;;;;;-0.92;81.82;96671.47;5053397;28;20057;-44
2021/04/14 05:20:47;;;;;;;15.90;9.57;;;;;;;-0.99;81.94;96687.56;5052653;28;20496;-45
2021/04/14 05:23:21;;;;;;;14.82;9.40;;;;;;;-0.95;81.89;96681.53;5052551;28;20053;-45
2021/04/14 05:25:48;;;;;;;14.43;9.77;;;;;;;-0.80;81.58;96675.66;5069007;28;20045;-47
2021/04/14 05:28:26;;;;;;;15.77;10.02;;;;;;;-0.67;80.44;96682.50;5045174;28;20060;-46
2021/04/14 05:30:54;;;;;;;13.48;8.80;;;;;;;-0.68;80.25;96685.41;5015743;28;20053;-46
2021/04/14 05:33:21;;;;;;;15.27;9.60;;;;;;;-0.63;80.61;96680.19;5032769;28;20053;-44
2021/04/14 05:35:51;;;;;;;13.32;9.18;;;;;;;-0.59;nan;96689.28;5032291;28;20057;-46
2021/04/14 05:38:25;;;;;;;14.60;9.25;;;;;;;-0.50;79.61;96685.16;5033229;28;20049;-46
2021/04/14 05:40:52;;;;;;;15.93;9.77;;;;;;;-0.58;80.50;96680.28;5033216;28;20053;-45
2021/04/14 05:43:33;;;;;;;15.68;9.10;;;;;;;-0.42;79.02;96674.13;5043895;28;20057;-46
2021/04/14 05:46:02;;;;;;;18.83;10.23;;;;;;;-0.42;79.54;96679.44;5053344;28;20335;-47
2021/04/14 05:48:30;;;;;;;18.55;10.00;;;;;;;-0.45;79.51;96677.28;5053590;28;20059;-43
2021/04/14 05:51:05;;;;;;;13.82;9.88;;;;;;;-0.58;79.78;96681.06;5050550;28;20059;-44
2021/04/14 05:53:36;;;;;;;18.17;12.18;;;;;;;-0.30;78.55;96676.69;5040709;28;20049;-45
2021/04/14 05:56:03;;;;;;;20.05;11.07;;;;;;;-0.23;78.63;96682.63;5053315;28;20810;-48
2021/04/14 05:58:33;;;;;;;14.93;9.48;;;;;;;-0.36;78.53;96677.66;5063387;28;20071;-49
2021/04/14 06:01:00;;;;;;;15.38;10.25;;;;;;;-0.14;77.02;96677.69;5052553;28;20053;-45
2021/04/14 06:03:27;;;;;;;14.60;9.77;;;;;;;-0.06;77.64;96682.59;5036257;28;20064;-47
2021/04/14 06:05:55;;;;;;;16.42;10.25;;;;;;;0.05;77.50;96687.00;5033789;28;20041;-45
2021/04/14 06:08:27;;;;;;;16.17;10.02;;;;;;;0.20;76.84;96684.53;5050054;28;20053;-45
2021/04/14 06:10:56;;;;;;;13.68;9.68;;;;;;;0.20;76.73;96687.19;5045275;28;20528;-44
2021/04/14 06:13:31;;;;;;;15.45;9.20;;;;;;;0.05;76.26;96687.00;5055418;28;20049;-42
2021/04/14 06:16:03;;;;;;;15.18;9.73;;;;;;;0.04;76.31;96684.59;5052258;28;20045;-41
2021/04/14 06:18:41;;;;;;;14.27;9.02;;;;;;;-0.06;75.19;96679.94;5052414;28;20063;-45
2021/04/14 06:21:07;;;;;;;12.52;8.77;;;;;;;0.20;75.20;96689.84;5051897;28;20059;-44
2021/04/14 06:23:34;;;;;;;16.85;9.88;;;;;;;0.30;76.63;96681.19;5050912;28;20060;-42
2021/04/14 06:28:38;;;;;;;14.20;8.75;;;;;;;0.24;73.47;96679.53;5044775;28;20046;-48
2021/04/14 06:31:06;;;;;;;12.27;6.65;;;;;;;0.17;71.62;96679.72;5049899;28;20052;-44
2021/04/14 06:33:37;;;;;;;13.52;7.30;;;;;;;0.32;71.01;96681.72;5032156;28;20079;-48
2021/04/14 06:36:11;;;;;;;13.25;6.53;;;;;;;0.52;69.69;96683.84;5032400;28;20103;-47
2021/04/14 06:38:42;;;;;;;10.93;5.78;;;;;;;0.74;68.32;96689.13;5051167;28;20068;-49
2021/04/14 06:41:50;;;;;;;10.77;6.57;;;;;;;0.94;67.64;96677.84;5050069;28;20052;-48
2021/04/14 06:44:37;;;;;;;13.10;6.68;;;;;;;1.16;67.74;96685.78;5051013;28;20049;-46
2021/04/14 06:47:11;;;;;;;15.77;7.45;;;;;;;1.27;66.91;96687.50;5050508;28;20635;-45
2021/04/14 06:49:38;;;;;;;12.63;6.47;;;;;;;1.27;67.58;96676.00;5050157;28;20534;-47
2021/04/14 06:52:30;;;;;;;8.85;6.05;;;;;;;1.24;66.19;96681.88;5049055;28;20102;-47
2021/04/14 06:55:12;;;;;;;12.25;6.15;;;;;;;1.14;67.35;96677.25;5049603;28;20049;-45
2021/04/14 06:57:43;;;;;;;13.40;8.10;;;;;;;1.38;67.59;96677.72;5033077;28;20060;-43
2021/04/14 07:00:35;;;;;;;12.93;7.00;;;;;;;1.51;66.11;96677.28;5031713;28;20045;-45
2021/04/14 07:03:10;;;;;;;11.05;6.97;;;;;;;1.67;66.20;96677.38;5031343;28;20084;-42
2021/04/14 07:05:42;;;;;;;11.10;6.55;;;;;;;1.68;65.68;96687.00;5050289;28;20450;-49
2021/04/14 07:08:48;;;;;;;11.65;6.85;;;;;;;1.74;66.93;96677.97;5051609;28;20059;-43
2021/04/14 07:11:21;;;;;;;11.07;6.15;;;;;;;1.78;65.34;96679.03;5050011;28;20387;-47
2021/04/14 07:13:48;;;;;;;9.63;5.68;;;;;;;1.83;64.60;96684.44;5033883;28;20052;-44
2021/04/14 07:16:39;;;;;;;10.77;5.93;;;;;;;2.02;64.92;96682.13;5031579;28;20745;-44
2021/04/14 07:19:31;;;;;;;10.70;6.22;;;;;;;2.16;64.46;96688.59;5031678;28;20421;-42
2021/04/14 07:22:01;;;;;;;8.63;5.55;;;;;;;2.09;62.43;96685.38;5044403;28;20416;-48
2021/04/14 07:24:36;;;;;;;10.77;5.25;;;;;;;2.25;63.11;96691.59;5050364;28;20040;-49
2021/04/14 07:27:28;;;;;;;10.63;5.57;;;;;;;2.30;62.49;96683.59;5050475;28;20053;-50
2021/04/14 07:30:04;;;;;;;9.88;4.70;;;;;;;2.23;62.35;96680.34;5050952;28;20470;-47
2021/04/14 07:32:36;;;;;;;10.90;5.18;;;;;;;2.44;63.23;96681.22;5051597;28;20540;-48
2021/04/14 07:35:33;;;;;;;8.15;4.60;;;;;;;2.53;62.06;96683.13;5050667;28;20494;-47
2021/04/14 07:38:23;;;;;;;8.93;4.43;;;;;;;2.62;61.84;96685.31;5035546;28;20080;-48
2021/04/14 07:41:12;;;;;;;10.00;4.88;;;;;;;2.62;60.89;96683.44;5032517;28;20065;-46
2021/04/14 07:44:01;;;;;;;7.15;4.40;;;;;;;2.45;60.90;96690.88;5046878;28;20570;-42
2021/04/14 07:46:29;;;;;;;7.38;4.22;;;;;;;2.43;61.14;96691.13;5030188;28;20442;-45
2021/04/14 07:48:58;;;;;;;7.35;4.20;;;;;;;2.54;61.59;96695.44;5036626;28;20072;-46
2021/04/14 07:51:28;;;;;;;8.38;4.13;;;;;;;2.77;60.06;96690.72;5051174;28;20053;-44
2021/04/14 07:54:03;;;;;;;7.90;4.07;;;;;;;3.01;61.11;96689.16;5050366;28;20060;-46
2021/04/14 07:56:48;;;;;;;10.15;4.18;;;;;;;3.28;58.61;96682.75;5050082;28;20477;-48
2021/04/14 07:59:22;;;;;;;7.43;3.75;;;;;;;3.45;58.46;96680.63;5051415;28;20124;-43
2021/04/14 08:01:52;;;;;;;9.00;3.90;;;;;;;3.41;58.48;96686.75;5022167;28;20049;-46
2021/04/14 08:04:28;;;;;;;8.95;3.40;;;;;;;3.46;58.37;96686.78;5031185;28;20108;-47
2021/04/14 08:07:10;;;;;;;7.55;4.03;;;;;;;3.71;58.36;96686.75;5031600;28;20052;-47
2021/04/14 08:10:20;;;;;;;7.30;4.30;;;;;;;3.97;57.17;96684.06;5040227;28;20060;-48
2021/04/14 08:13:05;;;;;;;10.07;3.75;;;;;;;4.09;55.74;96681.06;5048033;28;20053;-45
2021/04/14 08:15:36;;;;;;;12.55;4.13;;;;;;;3.97;55.60;96679.50;5049808;28;20454;-47
2021/04/14 08:18:29;;;;;;;9.55;3.83;;;;;;;3.62;54.28;96680.34;5051260;28;20053;-48
2021/04/14 08:21:11;;;;;;;6.20;3.50;;;;;;;3.53;56.77;96675.81;5051372;28;20053;-46
2021/04/14 08:23:50;;;;;;;7.72;4.22;;;;;;;3.87;55.96;96676.84;5031428;28;20054;-47
2021/04/14 08:26:19;;;;;;;11.38;4.00;;;;;;;3.56;56.78;96673.38;5046594;28;20057;-48
2021/04/14 08:28:47;;;;;;;5.97;3.90;;;;;;;3.59;56.72;96672.84;5031928;28;20396;-45
2021/04/14 08:31:23;;;;;;;6.68;4.15;;;;;;;3.70;56.26;96669.09;5043140;28;20098;-46
2021/04/14 08:33:53;;;;;;;6.82;3.75;;;;;;;3.72;54.51;96671.50;5047457;28;20056;-43
2021/04/14 08:36:30;;;;;;;8.65;4.75;;;;;;;3.40;55.86;96664.56;5046168;28;20052;-46
2021/04/14 08:38:56;;;;;;;6.65;3.97;;;;;;;3.46;56.93;96668.84;5036943;28;20045;-48
2021/04/14 08:41:29;;;;;;;7.95;4.28;;;;;;;3.57;59.28;96663.50;5050453;28;20395;-47
2021/04/14 08:44:29;;;;;;;33.60;7.00;;;;;;;3.71;57.98;96664.56;5041188;28;20392;-46
2021/04/14 08:47:06;;;;;;;8.52;4.00;;;;;;;3.21;57.58;96661.63;5051866;28;20383;-44
2021/04/14 08:49:38;;;;;;;9.68;3.85;;;;;;;2.98;59.00;96662.13;5044919;28;20429;-46
2021/04/14 08:52:12;;;;;;;8.30;4.60;;;;;;;3.02;58.92;96652.50;5026631;28;20052;-45
2021/04/14 08:54:40;;;;;;;6.85;3.95;;;;;;;3.09;57.10;96654.94;5050640;28;20052;-42
2021/04/14 08:57:07;;;;;;;6.38;3.83;;;;;;;3.00;57.09;96655.47;5051782;28;20045;-47
2021/04/14 08:59:35;;;;;;;6.25;4.50;;;;;;;3.04;58.39;96651.19;5050163;28;20053;-44
2021/04/14 09:02:05;;;;;;;6.72;3.60;;;;;;;2.64;58.93;96654.59;5047010;28;20056;-40
2021/04/14 09:04:34;;;;;;;7.43;4.00;;;;;;;2.86;59.68;96658.91;5048646;28;20045;-41
2021/04/14 09:07:03;;;;;;;8.93;3.50;;;;;;;2.94;59.70;96653.84;5052285;28;20049;-39
2021/04/14 09:09:49;;;;;;;5.88;3.50;;;;;;;2.81;59.43;96659.72;5047542;28;20117;-44
2021/04/14 09:12:16;;;;;;;5.85;3.20;;;;;;;2.74;58.83;96657.28;5051001;28;20083;-47
2021/04/14 09:14:44;;;;;;;6.25;3.65;;;;;;;2.97;58.92;96649.84;5050480;28;20078;-49
2021/04/14 09:17:10;;;;;;;11.65;4.05;;;;;;;3.04;58.66;96647.72;5049006;28;21892;-48
2021/04/14 09:19:42;;;;;;;8.60;3.92;;;;;;;2.92;58.07;96647.97;5052728;28;20048;-46
2021/04/14 09:22:12;;;;;;;8.87;4.07;;;;;;;3.33;58.03;96650.66;5067347;28;20063;-41
2021/04/14 09:24:54;;;;;;;7.60;3.60;;;;;;;3.70;57.63;96642.31;5047410;28;20041;-47
2021/04/14 09:27:25;;;;;;;8.93;4.30;;;;;;;3.99;56.91;96639.03;5052559;28;20477;-44
2021/04/14 09:30:01;;;;;;;8.93;3.63;;;;;;;3.98;54.44;96643.59;5052045;28;20402;-47
2021/04/14 09:32:56;;;;;;;5.78;3.80;;;;;;;4.04;54.50;96640.94;5033014;28;20139;-47
2021/04/14 09:35:36;;;;;;;4.43;2.90;;;;;;;3.64;53.71;96637.25;5042850;28;20487;-46
2021/04/14 09:38:33;;;;;;;5.45;3.20;;;;;;;3.40;53.55;96645.84;5045474;28;20053;-43
2021/04/14 09:41:27;;;;;;;6.13;3.53;;;;;;;3.95;53.39;96636.13;5048664;28;20053;-43
2021/04/14 09:43:55;;;;;;;;;;;;;;;4.30;51.48;96629.03;5048686;28;20056;-46
2021/04/14 09:46:34;;;;;;;7.65;3.40;;;;;;;4.43;50.91;96628.44;5039027;28;20007;-42
2021/04/14 09:49:13;;;;;;;8.65;3.22;;;;;;;4.44;51.55;96621.19;5046090;28;20087;-45
2021/04/14 09:51:43;;;;;;;5.07;3.20;;;;;;;4.36;49.87;96625.25;5049210;28;20056;-46
2021/04/14 09:54:27;;;;;;;5.22;2.63;;;;;;;4.34;48.95;96616.69;5049449;28;20053;-46
2021/04/14 09:56:55;;;;;;;6.93;3.22;;;;;;;4.95;47.81;96618.22;5049340;28;20049;-47
2021/04/14 09:59:42;;;;;;;6.45;2.60;;;;;;;5.12;47.03;96615.94;5050903;28;20075;-45
2021/04/14 10:02:13;;;;;;;6.22;2.92;;;;;;;5.60;45.17;96601.84;5050700;28;20185;-47
2021/04/14 10:04:42;;;;;;;4.80;2.65;;;;;;;5.76;45.49;96603.28;5050928;28;20037;-45
2021/04/14 10:07:33;;;;;;;4.68;2.65;;;;;;;6.13;45.77;96601.81;5060046;28;20045;-49
2021/04/14 10:10:06;;;;;;;6.90;3.10;;;;;;;6.55;44.13;96594.84;5056103;28;20061;-46
2021/04/14 10:12:32;;;;;;;4.40;2.38;;;;;;;5.68;42.35;96601.22;5045544;28;20038;-44
2021/04/14 10:15:01;;;;;;;3.75;2.30;;;;;;;5.59;42.62;96598.38;5033623;28;20503;-49
2021/04/14 10:17:30;;;;;;;4.20;2.00;;;;;;;5.54;42.44;96592.25;5049300;28;20061;-46
2021/04/14 10:20:09;;;;;;;5.97;2.28;;;;;;;5.39;43.62;96591.31;5039685;28;20060;-45
2021/04/14 10:22:46;;;;;;;4.70;2.40;;;;;;;4.84;45.50;96589.84;5042741;28;20053;-46
2021/04/14 10:25:37;;;;;;;4.22;2.40;;;;;;;4.60;46.19;96587.88;5042484;28;20060;-46
2021/04/14 10:28:07;;;;;;;4.82;2.35;;;;;;;4.64;46.35;96586.22;5049413;28;20049;-45
2021/04/14 10:30:37;;;;;;;4.13;2.30;;;;;;;4.95;45.52;96588.72;5046667;28;20045;-48
2021/04/14 10:33:07;;;;;;;5.22;2.00;;;;;;;5.05;45.07;96585.94;5043007;28;20052;-44
2021/04/14 10:35:35;;;;;;;4.25;1.80;;;;;;;4.81;40.94;96591.25;5049529;28;20060;-44
2021/04/14 10:38:04;;;;;;;5.03;2.22;;;;;;;4.51;43.77;96594.88;5038845;28;20505;-42
2021/04/14 10:40:37;;;;;;;3.60;2.00;;;;;;;4.13;45.48;96591.09;5049610;28;20418;-43
2021/04/14 10:43:18;;;;;;;5.03;2.45;;;;;;;4.10;44.00;96589.75;5044170;28;20068;-45
2021/04/14 10:46:18;;;;;;;4.07;1.98;;;;;;;4.22;45.76;96589.41;5043669;28;20049;-44
2021/04/14 10:48:48;;;;;;;4.65;2.95;;;;;;;4.69;45.82;96586.22;5045087;28;20053;-43
2021/04/14 10:51:25;;;;;;;5.68;2.22;;;;;;;4.79;44.08;96588.03;5043418;28;20119;-49
2021/04/14 10:53:56;;;;;;;8.27;2.20;;;;;;;5.13;44.37;96585.38;5050432;28;20053;-42
2021/04/14 10:56:30;;;;;;;4.32;2.35;;;;;;;4.93;41.38;96577.47;5047217;28;20073;-46
2021/04/14 10:59:03;;;;;;;3.67;1.85;;;;;;;4.70;41.41;96578.97;5041861;28;20045;-44
2021/04/14 11:01:40;;;;;;;4.55;2.00;;;;;;;5.26;42.49;96578.53;5057077;28;20057;-45
2021/04/14 11:04:15;;;;;;;3.38;2.05;;;;;;;5.48;42.15;96571.91;5039513;28;20045;-41
2021/04/14 11:06:44;;;;;;;2.90;1.80;;;;;;;5.82;41.09;96566.44;5032427;28;20056;-47
2021/04/14 11:09:12;;;;;;;2.85;1.40;;;;;;;5.94;40.08;96558.00;5031346;28;20077;-47
2021/04/14 11:11:41;;;;;;;3.20;1.50;;;;;;;6.00;39.76;96557.66;5030506;28;20410;-46
2021/04/14 11:14:10;;;;;;;3.45;1.80;;;;;;;6.30;40.93;96561.88;5047720;28;20048;-45
2021/04/14 11:16:38;;;;;;;2.35;1.63;;;;;;;6.57;41.04;96565.00;5051621;28;20068;-43
2021/04/14 11:19:12;;;;;;;5.38;1.90;;;;;;;6.40;39.06;96560.94;5033826;28;20052;-43
2021/04/14 11:21:39;;;;;;;5.32;1.70;;;;;;;6.66;38.14;96556.00;5050873;28;20063;-43
2021/04/14 11:24:15;;;;;;;3.00;1.80;;;;;;;6.68;39.47;96551.09;5051441;28;20123;-46
2021/04/14 11:26:51;;;;;;;2.78;1.58;;;;;;;7.01;39.13;96548.44;5051609;28;20053;-48
2021/04/14 11:29:29;;;;;;;3.63;1.60;;;;;;;7.36;38.32;96548.94;5051833;28;20052;-48
2021/04/14 11:31:58;;;;;;;3.67;2.25;;;;;;;7.77;38.69;96548.19;5034188;28;20438;-47
2021/04/14 11:34:31;;;;;;;4.60;1.80;;;;;;;7.73;40.13;96542.59;5031423;28;20060;-46
2021/04/14 11:36:58;;;;;;;6.40;1.90;;;;;;;7.03;38.86;96546.25;5031564;28;20054;-45
2021/04/14 11:39:26;;;;;;;3.60;1.98;;;;;;;7.53;40.19;96538.38;5031792;28;20139;-42
2021/04/14 11:42:14;;;;;;;3.90;2.00;;;;;;;7.67;36.93;96541.91;5030929;28;20045;-40
2021/04/14 11:44:51;;;;;;;4.22;2.15;;;;;;;8.37;38.33;96539.97;5031641;28;20061;-41
2021/04/14 11:47:30;;;;;;;6.32;2.35;;;;;;;9.27;36.19;96548.97;5031339;28;20051;-45
2021/04/14 11:50:09;;;;;;;4.13;1.90;;;;;;;9.87;35.06;96542.25;5031301;28;20077;-41
2021/04/14 11:52:38;;;;;;;3.92;2.03;;;;;;;10.10;34.16;96539.47;5052960;28;20045;-44
2021/04/14 11:55:13;;;;;;;6.00;2.60;;;;;;;7.05;39.01;96536.00;5051061;28;20148;-45